createdAt,value
2023-02-16T00:09:10.022Z,66.39
2023-02-16T00:19:37.450Z,66.33
2023-02-16T00:30:02.286Z,66.62
2023-02-16T00:40:26.578Z,66.58
2023-02-16T00:50:50.856Z,66.71
2023-02-16T01:01:18.101Z,66.57
2023-02-16T01:11:42.410Z,66.51
2023-02-16T01:22:06.591Z,66.53
2023-02-16T01:32:30.771Z,66.65
2023-02-16T01:43:03.034Z,66.59
2023-02-16T01:53:33.483Z,66.94
2023-02-16T02:04:16.360Z,66.96
2023-02-16T02:14:40.969Z,67.07
2023-02-16T02:25:22.662Z,67.00
2023-02-16T02:35:57.271Z,67.04
2023-02-16T02:46:26.198Z,67.41
2023-02-16T02:57:14.441Z,67.42
2023-02-16T03:07:47.076Z,67.20
2023-02-16T03:18:30.523Z,67.58
2023-02-16T03:29:14.123Z,67.81
2023-02-16T03:39:53.220Z,68.00
2023-02-16T03:50:18.271Z,67.98
2023-02-16T04:00:42.802Z,68.49
2023-02-16T04:11:21.784Z,68.31
2023-02-16T04:21:46.129Z,68.37
2023-02-16T04:32:10.461Z,68.42
2023-02-16T04:42:34.714Z,68.68
2023-02-16T04:52:58.972Z,68.99
2023-02-16T05:03:23.208Z,68.87
2023-02-16T05:14:06.600Z,69.00
2023-02-16T05:24:31.477Z,69.14
2023-02-16T05:34:56.229Z,69.61
2023-02-16T05:45:21.156Z,69.93
2023-02-16T05:55:45.457Z,69.82
2023-02-16T06:06:09.921Z,70.13
2023-02-16T06:16:35.314Z,70.09
2023-02-16T06:26:59.557Z,69.96
2023-02-16T06:37:25.549Z,70.25
2023-02-16T06:47:50.549Z,70.19
2023-02-16T06:58:15.424Z,70.49
2023-02-16T07:08:40.234Z,70.64
2023-02-16T07:19:06.370Z,71.37
2023-02-16T07:29:31.107Z,71.42
2023-02-16T07:39:56.565Z,71.39
2023-02-16T07:50:21.467Z,71.16
2023-02-16T08:00:46.278Z,70.88
2023-02-16T08:11:12.860Z,70.61
2023-02-16T08:21:38.745Z,70.07
2023-02-16T08:32:07.078Z,69.66
2023-02-16T08:42:31.451Z,69.29
2023-02-16T08:52:55.585Z,68.76
2023-02-16T09:03:20.132Z,68.30
2023-02-16T09:13:44.679Z,67.85
2023-02-16T09:24:10.960Z,67.33
2023-02-16T09:34:36.724Z,67.24
2023-02-16T09:45:06.941Z,66.93
2023-02-16T09:55:39.747Z,66.52
2023-02-16T10:06:21.649Z,66.33
2023-02-16T10:16:51.299Z,65.88
2023-02-16T10:27:16.731Z,65.99
2023-02-16T10:37:53.629Z,65.36
2023-02-16T10:48:17.798Z,65.19
2023-02-16T10:58:42.955Z,64.94
2023-02-16T11:09:07.216Z,64.64
2023-02-16T11:19:32.775Z,64.07
2023-02-16T11:30:22.020Z,63.96
2023-02-16T11:40:52.606Z,63.50
2023-02-16T11:51:31.320Z,63.21
2023-02-16T12:02:27.608Z,63.02
2023-02-16T12:13:04.091Z,62.54
2023-02-16T12:23:37.732Z,61.89
2023-02-16T12:34:23.540Z,61.48
2023-02-16T12:44:50.835Z,60.85
2023-02-16T12:55:21.816Z,60.40
2023-02-16T13:05:54.764Z,60.71
2023-02-16T13:16:30.417Z,60.55
2023-02-16T13:27:09.127Z,60.37
2023-02-16T13:37:52.764Z,60.42
2023-02-16T13:48:23.483Z,59.98
2023-02-16T13:58:47.915Z,59.59
2023-02-16T14:09:36.169Z,59.65
2023-02-16T14:20:03.463Z,59.30
2023-02-16T14:30:32.043Z,59.17
2023-02-16T14:40:56.573Z,59.29
2023-02-16T14:51:41.442Z,59.40
2023-02-16T15:02:27.444Z,59.49
2023-02-16T15:12:52.582Z,59.58
2023-02-16T15:23:21.418Z,59.70
2023-02-16T15:33:56.257Z,60.25
2023-02-16T15:44:33.672Z,60.17
2023-02-16T15:54:59.769Z,60.74
2023-02-16T16:05:26.835Z,60.57
2023-02-16T16:15:52.154Z,60.73
2023-02-16T16:26:20.244Z,60.84
2023-02-16T16:36:53.570Z,60.94
2023-02-16T16:47:25.213Z,61.35
2023-02-16T16:57:50.906Z,61.43
2023-02-16T17:08:15.137Z,61.56
2023-02-16T17:18:39.568Z,61.42
2023-02-16T17:29:04.954Z,61.70
2023-02-16T17:39:29.199Z,61.67
2023-02-16T17:49:53.650Z,61.68
2023-02-16T18:00:22.548Z,61.95
2023-02-16T18:10:49.856Z,62.45
2023-02-16T18:21:14.305Z,62.48
2023-02-16T18:31:39.906Z,62.84
2023-02-16T18:42:04.635Z,63.36
2023-02-16T18:52:29.691Z,63.29
2023-02-16T19:02:57.514Z,63.37
2023-02-16T19:13:21.664Z,63.72
2023-02-16T19:23:47.358Z,63.50
2023-02-16T19:34:12.381Z,63.21
2023-02-16T19:44:36.844Z,62.79
2023-02-16T19:55:01.178Z,62.22
2023-02-16T20:05:25.444Z,62.57
2023-02-16T20:15:49.699Z,63.06
2023-02-16T20:26:18.080Z,63.51
2023-02-16T20:36:42.274Z,63.13
2023-02-16T20:47:07.504Z,62.85
2023-02-16T20:57:31.747Z,62.98
2023-02-16T21:07:56.003Z,63.15
2023-02-16T21:18:20.881Z,62.82
2023-02-16T21:28:46.316Z,63.00
2023-02-16T21:39:10.572Z,63.45
2023-02-16T21:49:34.731Z,63.47
2023-02-16T21:59:58.932Z,63.56
2023-02-16T22:10:23.343Z,63.83
2023-02-16T22:20:47.668Z,64.14
2023-02-16T22:31:11.889Z,64.24
2023-02-16T22:41:36.176Z,63.95
2023-02-16T22:52:00.367Z,63.94
2023-02-16T23:02:24.661Z,63.65
2023-02-16T23:12:48.914Z,63.48
2023-02-16T23:23:13.141Z,63.59
2023-02-16T23:33:37.407Z,63.69
2023-02-16T23:44:01.898Z,63.47
2023-02-16T23:54:26.184Z,63.93
